Time;durP1;ratioP1;P1;durP2;ratioP2;P2;SDS_P1;SDS_P2;PMS_P1;PMS_P2;Temp;Humidity;BMP_temperature;BMP_pressure;BME280_temperature;BME280_humidity;BME280_pressure;Samples;Min_cycle;Max_cycle;Signal;HPM_P1;HPM_P2
2021/06/07 00:00:49;;;;;;;5.95;4.50;;;;;;;11.42;nan;102157.94;4979987;28;20092;-47
2021/06/07 00:03:14;;;;;;;5.95;4.28;;;;;;;11.36;nan;102159.63;4994993;28;20038;-46
2021/06/07 00:05:40;;;;;;;6.95;4.70;;;;;;;11.33;nan;102157.41;4976989;28;20065;-47
2021/06/07 00:08:06;;;;;;;8.95;4.25;;;;;;;11.32;nan;102157.63;4996230;28;20033;-49
2021/06/07 00:10:31;;;;;;;9.98;4.85;;;;;;;11.28;nan;102156.38;4993287;28;20165;-47
2021/06/07 00:12:57;;;;;;;9.65;5.43;;;;;;;11.22;nan;102152.72;4993298;28;20110;-46
2021/06/07 00:15:25;;;;;;;7.43;4.78;;;;;;;11.16;nan;102153.59;4995482;28;20108;-50
2021/06/07 00:17:51;;;;;;;9.80;5.38;;;;;;;11.11;nan;102156.91;4982170;28;20074;-46
2021/06/07 00:20:26;;;;;;;6.97;4.68;;;;;;;11.02;nan;102157.41;4990749;28;20046;-48
2021/06/07 00:22:51;;;;;;;;;;;;;;;10.79;nan;102158.78;4992324;28;20061;-47
2021/06/07 00:25:17;;;;;;;8.32;5.10;;;;;;;10.82;nan;102154.84;4991117;28;19917;-48
2021/06/07 00:27:43;;;;;;;8.55;5.82;;;;;;;10.82;nan;102162.91;4995082;28;20502;-48
2021/06/07 00:30:09;;;;;;;10.63;5.95;;;;;;;10.77;nan;102160.88;4993424;28;20576;-47
2021/06/07 00:32:35;;;;;;;7.13;5.65;;;;;;;10.72;nan;102158.00;4993803;28;20026;-47
2021/06/07 00:35:00;;;;;;;9.13;5.72;;;;;;;10.70;nan;102154.69;4990449;28;20425;-50
2021/06/07 00:37:26;;;;;;;8.57;5.07;;;;;;;10.68;nan;102155.97;4993989;28;20061;-46
2021/06/07 00:39:51;;;;;;;9.60;5.85;;;;;;;10.66;nan;102158.84;4994791;28;20539;-46
2021/06/07 00:42:17;;;;;;;6.63;5.13;;;;;;;10.69;nan;102161.09;4993786;28;20036;-46
2021/06/07 00:44:42;;;;;;;7.65;4.97;;;;;;;10.63;nan;102166.50;4991996;28;20029;-49
2021/06/07 00:47:08;;;;;;;5.90;5.00;;;;;;;10.59;nan;102164.25;4992039;28;20910;-46
2021/06/07 00:49:34;;;;;;;6.93;5.10;;;;;;;10.53;nan;102161.59;4990652;28;20507;-47
2021/06/07 00:52:00;;;;;;;9.48;5.28;;;;;;;10.45;nan;102162.66;4979594;28;20113;-48
2021/06/07 00:54:26;;;;;;;13.02;5.75;;;;;;;10.38;nan;102159.16;4992994;28;20489;-49
2021/06/07 00:56:51;;;;;;;12.85;6.05;;;;;;;10.30;nan;102154.06;4993222;28;20539;-46
2021/06/07 00:59:17;;;;;;;13.43;5.50;;;;;;;10.27;nan;102157.16;4993856;28;20038;-48
2021/06/07 01:01:43;;;;;;;8.70;5.00;;;;;;;10.19;nan;102157.34;4992682;28;20030;-47
2021/06/07 01:04:09;;;;;;;8.93;5.70;;;;;;;10.14;nan;102154.50;4995708;28;20503;-46
2021/06/07 01:06:36;;;;;;;8.15;5.50;;;;;;;10.10;nan;102151.41;4988247;28;20034;-47
2021/06/07 01:09:04;;;;;;;8.75;5.53;;;;;;;10.08;nan;102156.16;4994972;28;20041;-49
2021/06/07 01:11:31;;;;;;;8.20;5.60;;;;;;;10.11;nan;102161.09;4993220;28;20044;-47
2021/06/07 01:13:57;;;;;;;8.43;6.03;;;;;;;10.19;nan;102162.72;4995128;28;20019;-47
2021/06/07 01:16:22;;;;;;;7.78;5.82;;;;;;;10.17;nan;102160.25;4991237;28;20061;-50
2021/06/07 01:18:49;;;;;;;8.02;5.53;;;;;;;10.10;nan;102158.63;4996432;28;20026;-46
2021/06/07 01:21:22;;;;;;;7.40;5.50;;;;;;;10.03;nan;102155.13;4996177;28;20037;-48
2021/06/07 01:23:48;;;;;;;18.20;5.75;;;;;;;9.95;nan;102150.84;4999798;28;20034;-46
2021/06/07 01:26:17;;;;;;;63.25;8.70;;;;;;;9.92;nan;102152.09;4999620;28;20442;-47
2021/06/07 01:28:43;;;;;;;19.88;7.28;;;;;;;9.84;nan;102152.28;4994929;28;20589;-49
2021/06/07 01:31:11;;;;;;;13.45;6.10;;;;;;;9.76;nan;102146.34;4994417;28;20126;-48
2021/06/07 01:33:41;;;;;;;9.57;5.63;;;;;;;9.62;nan;102140.19;4992133;28;20169;-48
2021/06/07 01:36:06;;;;;;;10.02;5.70;;;;;;;9.57;nan;102142.66;4993178;28;20440;-47
2021/06/07 01:38:33;;;;;;;10.10;5.78;;;;;;;9.50;nan;102139.97;4993366;28;20105;-46
2021/06/07 01:41:01;;;;;;;8.52;5.47;;;;;;;9.41;nan;102138.56;4999264;28;20025;-47
2021/06/07 01:43:28;;;;;;;9.63;5.07;;;;;;;9.35;nan;102148.25;4997621;28;20493;-46
2021/06/07 01:45:55;;;;;;;7.35;5.05;;;;;;;9.30;nan;102145.34;4991961;28;20499;-47
2021/06/07 01:48:21;;;;;;;9.57;5.10;;;;;;;9.26;nan;102156.66;4994198;28;20152;-47
2021/06/07 01:50:49;;;;;;;9.20;5.30;;;;;;;9.24;nan;102154.19;4994264;28;20022;-45
2021/06/07 01:53:16;;;;;;;9.10;5.93;;;;;;;9.23;nan;102157.88;4996299;28;20117;-46
2021/06/07 01:55:44;;;;;;;11.90;5.60;;;;;;;9.20;nan;102152.97;4992186;28;20170;-46
2021/06/07 01:58:11;;;;;;;12.68;5.65;;;;;;;9.11;nan;102156.84;4994761;28;20038;-50
2021/06/07 02:00:44;;;;;;;15.05;5.38;;;;;;;9.00;nan;102154.78;4993898;28;20326;-46
2021/06/07 02:03:09;;;;;;;10.82;5.53;;;;;;;8.95;nan;102149.19;4995152;28;20025;-47
2021/06/07 02:05:39;;;;;;;8.48;5.25;;;;;;;8.92;nan;102154.97;4991666;28;20061;-47
2021/06/07 02:08:07;;;;;;;7.18;5.10;;;;;;;8.89;nan;102152.69;4994536;28;20029;-49
2021/06/07 02:10:38;;;;;;;6.90;4.90;;;;;;;8.82;nan;102157.22;4993057;28;20166;-48
2021/06/07 02:13:07;;;;;;;5.93;4.20;;;;;;;8.79;nan;102156.56;4992743;28;20030;-50
2021/06/07 02:15:33;;;;;;;5.53;4.40;;;;;;;8.73;nan;102149.38;4998426;28;20026;-47
2021/06/07 02:18:04;;;;;;;6.93;4.05;;;;;;;8.70;nan;102152.44;5000591;28;20477;-46
2021/06/07 02:20:30;;;;;;;5.65;4.63;;;;;;;8.68;nan;102148.34;5000292;28;20109;-46
2021/06/07 02:22:56;;;;;;;7.10;5.07;;;;;;;8.67;nan;102152.84;4997397;28;20403;-47
2021/06/07 02:25:22;;;;;;;5.57;4.65;;;;;;;8.60;nan;102152.00;5000209;28;20037;-48
2021/06/07 02:27:49;;;;;;;9.07;6.10;;;;;;;8.57;nan;102149.72;4997716;28;20026;-48
2021/06/07 02:30:20;;;;;;;8.48;6.30;;;;;;;8.57;nan;102151.56;4985938;28;20351;-47
2021/06/07 02:32:46;;;;;;;10.18;6.25;;;;;;;8.56;nan;102149.94;4998781;28;20037;-47
2021/06/07 02:35:15;;;;;;;10.30;6.15;;;;;;;8.52;nan;102154.03;4986264;28;20022;-50
2021/06/07 02:37:42;;;;;;;9.07;6.05;;;;;;;8.47;nan;102146.63;4998454;28;20026;-47
2021/06/07 02:40:10;;;;;;;8.88;5.88;;;;;;;8.45;nan;102146.00;5000222;28;20266;-50
2021/06/07 02:42:38;;;;;;;9.82;5.75;;;;;;;8.44;nan;102147.03;4995832;28;20029;-47
2021/06/07 02:45:06;;;;;;;9.38;6.22;;;;;;;8.39;nan;102152.94;5000248;28;20121;-49
2021/06/07 02:47:31;;;;;;;11.73;6.25;;;;;;;8.37;nan;102149.66;4997607;28;20861;-48
2021/06/07 02:49:57;;;;;;;12.10;7.25;;;;;;;8.35;nan;102148.22;4997332;28;20065;-46
2021/06/07 02:52:23;;;;;;;12.40;6.10;;;;;;;8.33;nan;102148.38;4994993;28;20028;-48
2021/06/07 02:54:49;;;;;;;13.75;7.05;;;;;;;8.34;nan;102143.91;4998115;28;20053;-46
2021/06/07 02:57:14;;;;;;;11.30;6.45;;;;;;;8.37;nan;102152.31;4995458;28;20488;-49
2021/06/07 02:59:40;;;;;;;10.80;6.47;;;;;;;8.37;nan;102146.16;4997605;28;20037;-46
2021/06/07 03:02:05;;;;;;;9.00;6.13;;;;;;;8.39;nan;102147.59;4997312;28;20061;-48
2021/06/07 03:04:31;;;;;;;9.57;6.65;;;;;;;8.41;nan;102147.41;4996077;28;20160;-46
2021/06/07 03:06:57;;;;;;;12.57;7.25;;;;;;;8.43;nan;102148.84;4998314;28;20022;-47
2021/06/07 03:09:22;;;;;;;12.48;6.65;;;;;;;8.45;nan;102149.50;4998621;28;20468;-48
2021/06/07 03:11:48;;;;;;;12.88;7.30;;;;;;;8.52;nan;102149.50;4993986;28;20026;-46
2021/06/07 03:14:13;;;;;;;15.77;7.10;;;;;;;8.57;nan;102141.72;4998972;28;20064;-51
2021/06/07 03:16:39;;;;;;;10.95;7.03;;;;;;;8.62;nan;102147.31;4998971;28;20052;-48
2021/06/07 03:19:04;;;;;;;10.10;6.80;;;;;;;8.63;nan;102140.94;5000434;28;20155;-51
2021/06/07 03:21:30;;;;;;;10.40;6.20;;;;;;;8.74;nan;102143.00;4995230;28;20124;-46
2021/06/07 03:23:55;;;;;;;10.70;6.25;;;;;;;8.83;nan;102135.63;4999373;28;20062;-49
2021/06/07 03:26:21;;;;;;;9.88;6.38;;;;;;;8.93;nan;102141.38;4994827;28;20034;-47
2021/06/07 03:28:47;;;;;;;9.77;6.43;;;;;;;9.09;nan;102140.19;4997591;28;20029;-46
2021/06/07 03:31:12;;;;;;;11.02;6.13;;;;;;;9.25;nan;102142.47;5000113;28;20030;-49
2021/06/07 03:33:38;;;;;;;8.88;6.22;;;;;;;9.40;nan;102139.59;4994979;28;20030;-48
2021/06/07 03:36:05;;;;;;;11.35;7.15;;;;;;;9.53;nan;102136.91;4998730;28;20026;-48
2021/06/07 03:38:32;;;;;;;9.55;6.97;;;;;;;9.66;nan;102136.88;4997144;28;20066;-46
2021/06/07 03:40:58;;;;;;;9.80;6.05;;;;;;;9.83;nan;102136.44;4998683;28;20026;-46
2021/06/07 03:43:30;;;;;;;9.27;6.63;;;;;;;9.86;nan;102142.19;4995888;28;20388;-48
2021/06/07 03:45:57;;;;;;;10.27;6.22;;;;;;;9.99;nan;102152.88;4996711;28;20033;-47
2021/06/07 03:48:23;;;;;;;12.23;6.80;;;;;;;10.15;nan;102145.44;4997532;28;20037;-48
2021/06/07 03:50:49;;;;;;;10.23;6.45;;;;;;;10.26;nan;102145.63;4996461;28;20397;-49
2021/06/07 03:53:15;;;;;;;7.68;6.35;;;;;;;10.14;nan;102141.94;4995158;28;20029;-49
2021/06/07 03:55:41;;;;;;;9.40;6.10;;;;;;;10.32;nan;102152.00;4997946;28;20037;-47
2021/06/07 03:58:07;;;;;;;10.73;6.20;;;;;;;10.48;nan;102154.19;4996559;28;20091;-48
2021/06/07 04:00:35;;;;;;;9.85;6.72;;;;;;;10.53;nan;102154.38;4996017;28;20033;-46
2021/06/07 04:03:02;;;;;;;10.77;6.75;;;;;;;10.66;nan;102152.66;4993466;28;20303;-46
2021/06/07 04:05:29;;;;;;;10.88;6.18;;;;;;;10.82;nan;102150.31;4990865;28;20034;-51
2021/06/07 04:07:56;;;;;;;11.15;6.43;;;;;;;10.99;nan;102153.31;4990697;28;20424;-46
2021/06/07 04:10:24;;;;;;;10.48;6.68;;;;;;;11.15;nan;102147.41;4995740;28;20072;-49
2021/06/07 04:12:50;;;;;;;11.20;6.20;;;;;;;11.30;nan;102148.94;4987847;28;20111;-50
2021/06/07 04:15:19;;;;;;;11.98;6.60;;;;;;;11.38;nan;102146.81;4990858;28;20169;-49
2021/06/07 04:17:45;;;;;;;7.63;6.18;;;;;;;11.54;nan;102150.81;4991707;28;20158;-46
2021/06/07 04:20:14;;;;;;;11.02;6.65;;;;;;;11.71;nan;102149.22;4988571;28;20068;-45
2021/06/07 04:22:41;;;;;;;11.52;7.40;;;;;;;11.66;nan;102142.84;4991507;28;20088;-45
2021/06/07 04:25:08;;;;;;;7.55;6.75;;;;;;;11.74;nan;102145.25;4989569;28;20033;-46
2021/06/07 04:27:33;;;;;;;9.68;6.68;;;;;;;11.93;nan;102149.63;4990005;28;20030;-46
2021/06/07 04:29:59;;;;;;;8.85;6.10;;;;;;;12.13;nan;102148.59;4990597;28;20400;-46
2021/06/07 04:32:25;;;;;;;9.43;6.55;;;;;;;12.31;nan;102151.28;4991036;28;20350;-46
2021/06/07 04:34:51;;;;;;;11.18;7.15;;;;;;;12.40;nan;102150.75;4989463;28;20026;-46
2021/06/07 04:37:16;;;;;;;9.82;6.88;;;;;;;12.59;nan;102154.22;4991186;28;20488;-46
2021/06/07 04:39:42;;;;;;;8.50;6.68;;;;;;;12.67;nan;102155.78;4989679;28;20485;-46
2021/06/07 04:42:08;;;;;;;10.23;6.80;;;;;;;12.71;nan;102156.94;4990491;28;20026;-46
2021/06/07 04:44:34;;;;;;;11.88;7.05;;;;;;;12.66;nan;102152.25;4989710;28;20134;-47
2021/06/07 04:47:00;;;;;;;9.15;7.22;;;;;;;12.94;nan;102153.53;4992039;28;20034;-46
2021/06/07 04:49:25;;;;;;;10.40;6.90;;;;;;;13.01;nan;102151.56;4990601;28;20385;-47
2021/06/07 04:51:51;;;;;;;9.88;7.00;;;;;;;13.11;nan;102151.84;4986642;28;20388;-48
2021/06/07 04:54:17;;;;;;;9.80;7.90;;;;;;;12.99;nan;102164.44;4995046;28;20029;-46
2021/06/07 04:56:42;;;;;;;11.48;7.18;;;;;;;13.29;nan;102153.66;4992467;28;20381;-47
2021/06/07 04:59:08;;;;;;;11.38;6.40;;;;;;;13.52;nan;102142.91;4992427;28;20033;-47
2021/06/07 05:01:33;;;;;;;9.23;6.78;;;;;;;13.77;nan;102136.44;4990876;28;20033;-45
2021/06/07 05:03:59;;;;;;;11.25;6.90;;;;;;;13.91;nan;102145.94;4991095;28;21102;-46
2021/06/07 05:06:25;;;;;;;10.65;6.82;;;;;;;13.88;nan;102141.84;4990734;28;21080;-46
2021/06/07 05:08:50;;;;;;;11.13;7.25;;;;;;;14.10;nan;102139.34;4993370;28;20045;-46
2021/06/07 05:11:16;;;;;;;13.85;7.47;;;;;;;13.99;nan;102137.47;4990436;28;20089;-46
2021/06/07 05:13:42;;;;;;;10.75;7.13;;;;;;;14.21;nan;102133.13;4992953;28;20030;-47
2021/06/07 05:16:07;;;;;;;11.15;7.53;;;;;;;14.21;nan;102133.13;4990015;28;20037;-46
2021/06/07 05:18:34;;;;;;;11.20;7.07;;;;;;;14.47;nan;102136.34;4989797;28;20037;-46
2021/06/07 05:20:59;;;;;;;8.35;6.65;;;;;;;14.72;nan;102142.22;4987783;28;20516;-46
2021/06/07 05:23:25;;;;;;;17.40;6.80;;;;;;;14.91;nan;102142.03;4986709;28;20160;-47
2021/06/07 05:25:51;;;;;;;12.02;7.65;;;;;;;15.14;nan;102144.56;4991414;28;20069;-45
2021/06/07 05:28:18;;;;;;;11.55;7.47;;;;;;;15.35;nan;102148.44;4989562;28;20516;-46
2021/06/07 05:30:47;;;;;;;10.02;7.32;;;;;;;15.43;nan;102143.41;4990532;28;20613;-46
2021/06/07 05:33:13;;;;;;;16.13;8.50;;;;;;;15.40;nan;102143.09;4990288;28;20165;-46
2021/06/07 05:35:41;;;;;;;13.35;8.65;;;;;;;15.59;nan;102140.97;4988154;28;20495;-46
2021/06/07 05:38:08;;;;;;;10.95;7.53;;;;;;;15.80;nan;102140.22;4989434;28;20028;-46
2021/06/07 05:40:36;;;;;;;11.13;8.30;;;;;;;15.65;nan;102150.81;4987257;28;20023;-46
2021/06/07 05:43:01;;;;;;;10.10;7.05;;;;;;;15.88;nan;102145.19;4991429;28;20198;-46
2021/06/07 05:45:27;;;;;;;9.65;7.32;;;;;;;15.90;nan;102148.47;4988895;28;20038;-46
2021/06/07 05:47:56;;;;;;;8.70;6.78;;;;;;;16.19;nan;102148.31;4990325;28;20072;-46
2021/06/07 05:50:23;;;;;;;10.10;6.55;;;;;;;16.42;nan;102139.94;4976100;28;20029;-46
2021/06/07 05:52:50;;;;;;;9.82;7.30;;;;;;;16.58;nan;102144.44;4994422;28;20034;-47
2021/06/07 05:55:27;;;;;;;9.88;7.43;;;;;;;16.71;nan;102147.84;4993786;28;20026;-45
2021/06/07 05:57:56;;;;;;;12.00;6.95;;;;;;;16.92;nan;102149.69;4994163;28;20030;-46
2021/06/07 06:00:27;;;;;;;10.68;6.78;;;;;;;17.16;nan;102155.59;4995164;28;20053;-45
2021/06/07 06:02:53;;;;;;;10.20;6.35;;;;;;;17.47;nan;102152.03;4992387;28;20034;-47
2021/06/07 06:05:19;;;;;;;10.15;6.53;;;;;;;17.44;nan;102151.75;4993860;28;20077;-46
2021/06/07 06:07:45;;;;;;;8.90;6.53;;;;;;;17.49;nan;102157.19;4995368;28;20459;-46
2021/06/07 06:10:12;;;;;;;8.80;5.95;;;;;;;17.84;nan;102159.38;4993549;28;20044;-46
2021/06/07 06:12:38;;;;;;;7.28;5.70;;;;;;;18.12;nan;102152.72;4994569;28;20080;-46
2021/06/07 06:15:05;;;;;;;7.32;5.05;;;;;;;18.36;nan;102153.91;4996748;28;20037;-46
2021/06/07 06:17:31;;;;;;;12.98;6.30;;;;;;;18.55;nan;102148.00;4994258;28;20526;-47
2021/06/07 06:19:56;;;;;;;11.23;5.57;;;;;;;18.71;nan;102142.38;4994966;28;20111;-47
2021/06/07 06:22:21;;;;;;;15.20;6.07;;;;;;;18.89;nan;102146.47;4992228;28;20042;-45
2021/06/07 06:24:47;;;;;;;11.20;6.05;;;;;;;18.79;nan;102143.72;4996071;28;20026;-46
2021/06/07 06:27:15;;;;;;;14.60;6.38;;;;;;;19.04;nan;102147.59;4992942;28;20558;-46
2021/06/07 06:29:42;;;;;;;7.07;5.80;;;;;;;19.22;nan;102147.84;4993575;28;20073;-47
2021/06/07 06:32:09;;;;;;;8.48;6.38;;;;;;;19.27;nan;102147.03;4992649;28;20026;-45
2021/06/07 06:34:35;;;;;;;11.40;6.30;;;;;;;19.44;nan;102150.28;4994819;28;20026;-46
2021/06/07 06:37:00;;;;;;;10.45;6.95;;;;;;;19.69;nan;102148.63;4994553;28;20504;-46
2021/06/07 06:39:26;;;;;;;11.07;6.07;;;;;;;19.89;nan;102148.56;4994968;28;20280;-47
2021/06/07 06:41:51;;;;;;;13.70;6.32;;;;;;;20.04;nan;102148.53;4995696;28;20172;-46
2021/06/07 06:44:16;;;;;;;12.55;6.28;;;;;;;20.24;nan;102144.91;4992613;28;20037;-46
2021/06/07 06:46:43;;;;;;;10.40;6.45;;;;;;;20.42;nan;102141.59;4992420;28;20986;-46
2021/06/07 06:49:08;;;;;;;10.73;6.22;;;;;;;20.64;nan;102143.09;4991900;28;20032;-47
2021/06/07 06:51:34;;;;;;;15.45;7.00;;;;;;;20.77;nan;102146.00;4992902;28;20034;-46
2021/06/07 06:53:59;;;;;;;11.50;5.95;;;;;;;20.71;nan;102143.63;4995420;28;20030;-47
2021/06/07 06:56:25;;;;;;;12.35;6.07;;;;;;;20.55;nan;102151.06;4994209;28;20550;-46
2021/06/07 06:58:50;;;;;;;11.23;5.75;;;;;;;20.69;nan;102152.06;4994882;28;20362;-47
2021/06/07 07:01:17;;;;;;;10.43;5.95;;;;;;;20.81;nan;102155.25;4982455;28;20154;-47
2021/06/07 07:03:44;;;;;;;9.25;5.70;;;;;;;20.79;nan;102156.63;4992878;28;20141;-47
2021/06/07 07:06:10;;;;;;;9.25;5.40;;;;;;;20.98;nan;102156.75;5000314;28;20065;-46
2021/06/07 07:08:36;;;;;;;10.18;5.75;;;;;;;21.17;nan;102154.16;4998209;28;20464;-47
2021/06/07 07:11:01;;;;;;;7.93;4.75;;;;;;;21.47;nan;102159.38;4999430;28;20033;-47
2021/06/07 07:13:27;;;;;;;6.18;4.28;;;;;;;21.62;nan;102163.88;4994085;28;20030;-48
2021/06/07 07:15:52;;;;;;;5.53;3.75;;;;;;;21.79;nan;102164.25;4998859;28;20089;-47
2021/06/07 07:18:18;;;;;;;4.78;3.70;;;;;;;21.18;nan;102163.97;4999772;28;20026;-47
2021/06/07 07:20:44;;;;;;;5.80;3.53;;;;;;;21.68;nan;102168.97;4995348;28;20501;-46
2021/06/07 07:23:11;;;;;;;5.85;3.60;;;;;;;21.83;nan;102169.94;4998736;28;20033;-47
2021/06/07 07:25:37;;;;;;;5.68;2.90;;;;;;;21.95;nan;102164.91;4997687;28;20026;-47
2021/06/07 07:28:05;;;;;;;8.35;3.47;;;;;;;22.10;nan;102163.94;4997997;28;20026;-47
2021/06/07 07:30:32;;;;;;;5.05;3.30;;;;;;;22.22;nan;102156.94;4997636;28;20038;-46
2021/06/07 07:32:58;;;;;;;6.47;3.85;;;;;;;21.91;nan;102161.13;4997943;28;20563;-47
2021/06/07 07:35:24;;;;;;;4.68;3.17;;;;;;;21.96;nan;102164.59;4994974;28;20117;-47
2021/06/07 07:37:51;;;;;;;5.35;3.85;;;;;;;22.35;nan;102168.25;5003854;28;20037;-46
2021/06/07 07:40:19;;;;;;;4.82;3.45;;;;;;;22.60;nan;102163.25;4998454;28;20026;-47
2021/06/07 07:42:46;;;;;;;7.28;3.42;;;;;;;22.39;nan;102172.03;4994252;28;20037;-47
2021/06/07 07:45:13;;;;;;;4.95;3.30;;;;;;;22.23;nan;102163.22;4996427;28;20171;-47
2021/06/07 07:47:39;;;;;;;8.60;3.47;;;;;;;22.37;nan;102164.13;4999125;28;20030;-47
2021/06/07 07:50:07;;;;;;;6.90;3.33;;;;;;;22.69;nan;102154.41;5001188;28;20046;-46
2021/06/07 07:52:32;;;;;;;7.47;3.38;;;;;;;22.99;nan;102158.63;4998949;28;20470;-46
2021/06/07 07:54:58;;;;;;;3.92;3.10;;;;;;;23.12;nan;102158.66;5002303;28;20116;-47
2021/06/07 07:57:25;;;;;;;4.78;3.00;;;;;;;23.28;nan;102156.50;4997503;28;20036;-47
2021/06/07 07:59:51;;;;;;;3.78;3.28;;;;;;;23.20;nan;102160.75;5001527;28;20026;-47
2021/06/07 08:02:16;;;;;;;6.15;3.25;;;;;;;22.95;nan;102161.13;4999765;28;20033;-47
2021/06/07 08:04:42;;;;;;;6.72;3.50;;;;;;;22.81;nan;102162.97;4998513;28;20052;-47
2021/06/07 08:07:08;;;;;;;5.70;3.25;;;;;;;23.12;nan;102166.06;4995661;28;20029;-47
2021/06/07 08:09:35;;;;;;;7.45;3.20;;;;;;;23.31;nan;102155.88;4993316;28;20100;-46
2021/06/07 08:12:02;;;;;;;4.82;3.40;;;;;;;23.11;nan;102157.03;4990618;28;20030;-47
2021/06/07 08:14:28;;;;;;;4.90;3.33;;;;;;;22.94;nan;102162.25;4991615;28;20547;-47
2021/06/07 08:16:54;;;;;;;6.07;3.30;;;;;;;23.45;nan;102162.22;4997403;28;20029;-47
2021/06/07 08:19:24;;;;;;;4.50;3.63;;;;;;;23.84;nan;102162.91;4999178;28;20037;-47
2021/06/07 08:21:50;;;;;;;4.20;3.10;;;;;;;23.12;nan;102163.31;4995792;28;20022;-47
2021/06/07 08:24:15;;;;;;;4.25;3.20;;;;;;;23.54;nan;102161.53;4994888;28;20028;-47
2021/06/07 08:26:41;;;;;;;5.00;3.45;;;;;;;23.59;nan;102156.81;4990674;28;20034;-48
2021/06/07 08:29:09;;;;;;;5.72;3.47;;;;;;;23.84;nan;102157.41;4992191;28;20458;-49
2021/06/07 08:31:36;;;;;;;5.22;3.22;;;;;;;24.25;nan;102157.44;4992819;28;20026;-48
2021/06/07 08:34:02;;;;;;;10.13;3.85;;;;;;;24.34;nan;102159.16;4993363;28;20061;-47
2021/06/07 08:36:27;;;;;;;5.43;3.35;;;;;;;24.63;nan;102149.75;4991501;28;20058;-47
2021/06/07 08:38:53;;;;;;;4.93;3.40;;;;;;;24.96;nan;102153.91;4993276;28;20113;-47
2021/06/07 08:41:19;;;;;;;4.03;3.63;;;;;;;25.27;nan;102153.16;4991784;28;20054;-48
2021/06/07 08:43:45;;;;;;;5.50;3.35;;;;;;;25.31;nan;102154.13;4994502;28;20555;-47
2021/06/07 08:46:11;;;;;;;5.25;3.65;;;;;;;25.25;nan;102147.97;4978264;28;20125;-47
2021/06/07 08:48:37;;;;;;;7.07;3.58;;;;;;;25.28;nan;102152.03;4994729;28;20648;-48
2021/06/07 08:51:03;;;;;;;4.35;2.72;;;;;;;25.47;nan;102149.06;4992449;28;20037;-48
2021/06/07 08:53:29;;;;;;;6.45;3.72;;;;;;;25.51;nan;102153.63;4993052;28;20038;-47
2021/06/07 08:55:56;;;;;;;5.20;3.55;;;;;;;25.57;nan;102155.09;4995012;28;20088;-47
2021/06/07 08:58:22;;;;;;;4.03;2.88;;;;;;;25.32;nan;102153.03;4991268;28;20033;-47
2021/06/07 09:00:47;;;;;;;8.88;3.92;;;;;;;25.04;nan;102151.56;4995015;28;20042;-48
2021/06/07 09:03:15;;;;;;;4.57;3.33;;;;;;;24.69;nan;102156.75;4991892;28;20026;-47
2021/06/07 09:05:43;;;;;;;3.75;3.30;;;;;;;24.54;nan;102159.81;4994526;28;20060;-49
2021/06/07 09:08:11;;;;;;;5.80;3.38;;;;;;;24.98;nan;102159.88;4991528;28;20021;-48
2021/06/07 09:10:40;;;;;;;5.78;3.60;;;;;;;25.45;nan;102151.31;4994206;28;20053;-47
2021/06/07 09:13:08;;;;;;;3.97;3.60;;;;;;;25.21;nan;102154.41;4989921;28;20041;-47
2021/06/07 09:15:41;;;;;;;4.47;3.13;;;;;;;25.26;nan;102157.03;4991006;28;20064;-48
2021/06/07 09:18:14;;;;;;;4.78;3.00;;;;;;;25.30;nan;102158.81;4994242;28;20030;-48
2021/06/07 09:20:42;;;;;;;5.43;3.58;;;;;;;25.45;nan;102154.06;4991888;28;20026;-47
2021/06/07 09:23:13;;;;;;;5.68;3.28;;;;;;;25.31;nan;102151.41;4992522;28;20432;-48
2021/06/07 09:25:45;;;;;;;5.05;2.90;;;;;;;25.69;nan;102151.00;4994088;28;20030;-47
2021/06/07 09:28:13;;;;;;;4.78;2.90;;;;;;;25.82;nan;102150.88;4991537;28;20025;-47
2021/06/07 09:30:56;;;;;;;8.73;2.53;;;;;;;25.88;nan;102148.81;4992432;28;20018;-47
2021/06/07 09:33:40;;;;;;;4.53;3.28;;;;;;;26.17;nan;102146.28;4991200;28;20113;-48
2021/06/07 09:36:25;;;;;;;5.38;2.88;;;;;;;26.11;nan;102147.59;4992278;28;20053;-48
2021/06/07 09:39:24;;;;;;;4.93;2.72;;;;;;;26.43;nan;102148.31;4994285;28;20343;-48
2021/06/07 09:42:10;;;;;;;3.17;2.88;;;;;;;26.07;nan;102145.81;4990487;28;20058;-48
2021/06/07 09:44:47;;;;;;;4.72;3.10;;;;;;;26.37;nan;102144.91;4991506;28;20627;-48
2021/06/07 09:47:20;;;;;;;4.28;3.20;;;;;;;26.55;nan;102140.22;4991787;28;20083;-49
2021/06/07 09:49:56;;;;;;;5.22;2.90;;;;;;;26.80;nan;102127.63;4991888;28;20022;-48
2021/06/07 09:52:32;;;;;;;6.82;3.50;;;;;;;27.10;nan;102129.38;4990812;28;20097;-48
2021/06/07 09:55:10;;;;;;;4.55;2.95;;;;;;;26.28;nan;102129.50;4992678;28;20262;-48
2021/06/07 09:58:05;;;;;;;4.05;3.38;;;;;;;26.38;nan;102141.03;4989380;28;20081;-48
2021/06/07 10:00:42;;;;;;;3.40;2.80;;;;;;;26.67;nan;102137.66;4990921;28;20128;-48
2021/06/07 10:03:27;;;;;;;2.53;2.33;;;;;;;25.85;nan;102143.94;4992505;28;20385;-48
2021/06/07 10:06:01;;;;;;;4.05;2.50;;;;;;;26.04;nan;102130.78;4994561;28;20026;-48
2021/06/07 10:08:43;;;;;;;3.30;2.95;;;;;;;26.12;nan;102137.41;4991126;28;20045;-48
2021/06/07 10:11:16;;;;;;;2.70;2.50;;;;;;;25.83;nan;102130.53;4990607;28;20030;-47
2021/06/07 10:13:41;;;;;;;3.67;2.70;;;;;;;25.92;nan;102133.31;4990883;28;20033;-48
2021/06/07 10:16:09;;;;;;;3.53;2.63;;;;;;;26.33;nan;102137.59;4993826;28;20539;-47
2021/06/07 10:18:36;;;;;;;4.00;2.92;;;;;;;26.93;nan;102128.56;4992756;28;20077;-48
2021/06/07 10:21:04;;;;;;;4.25;3.50;;;;;;;27.33;nan;102127.22;4993016;28;20026;-48
2021/06/07 10:23:32;;;;;;;5.15;2.70;;;;;;;27.53;nan;102131.22;4990100;28;20061;-48
2021/06/07 10:26:04;;;;;;;4.80;2.90;;;;;;;27.76;nan;102128.22;4993109;28;20028;-47
2021/06/07 10:28:39;;;;;;;3.30;2.80;;;;;;;28.12;nan;102120.22;4990371;28;20037;-48
2021/06/07 10:31:13;;;;;;;3.90;3.35;;;;;;;27.59;nan;102118.06;4994300;28;20088;-48
2021/06/07 10:33:41;;;;;;;3.55;3.13;;;;;;;27.61;nan;102124.03;4991392;28;20108;-48
2021/06/07 10:36:22;;;;;;;3.92;3.42;;;;;;;28.08;nan;102127.56;4991983;28;20028;-48
2021/06/07 10:38:53;;;;;;;3.90;3.38;;;;;;;28.47;nan;102126.34;4994517;28;20604;-48
2021/06/07 10:41:27;;;;;;;3.67;3.25;;;;;;;28.71;nan;102125.63;4989311;28;20040;-48
2021/06/07 10:43:57;;;;;;;4.15;3.28;;;;;;;28.24;nan;102122.28;4994871;28;20057;-48
2021/06/07 10:46:30;;;;;;;3.55;3.00;;;;;;;27.89;nan;102116.97;4997375;28;20026;-48
2021/06/07 10:48:57;;;;;;;3.28;2.97;;;;;;;28.17;nan;102121.97;4991278;28;20025;-48
2021/06/07 10:51:29;;;;;;;3.38;3.08;;;;;;;28.45;nan;102101.06;4991807;28;20045;-48
2021/06/07 10:54:32;;;;;;;3.65;3.25;;;;;;;27.58;nan;102102.69;4996809;28;20121;-48
2021/06/07 10:57:27;;;;;;;6.05;3.00;;;;;;;27.31;nan;102092.94;4987368;28;20026;-48
2021/06/07 10:59:56;;;;;;;3.72;3.15;;;;;;;28.08;nan;102096.44;4985121;28;20487;-48
2021/06/07 11:02:24;;;;;;;3.72;3.03;;;;;;;28.42;nan;102101.72;4989090;28;20394;-48
2021/06/07 11:05:14;;;;;;;3.88;3.45;;;;;;;28.88;nan;102091.59;4990322;28;20140;-48
2021/06/07 11:07:45;;;;;;;8.43;3.30;;;;;;;29.18;nan;102097.78;4989544;28;20054;-49
2021/06/07 11:10:10;;;;;;;4.15;2.70;;;;;;;29.44;nan;102092.75;4987447;28;20041;-48
2021/06/07 11:12:37;;;;;;;3.72;3.00;;;;;;;29.63;nan;102094.19;4989594;28;20030;-49
2021/06/07 11:15:14;;;;;;;7.57;3.50;;;;;;;29.89;nan;102091.03;4991837;28;20089;-49
2021/06/07 11:17:41;;;;;;;3.85;3.10;;;;;;;30.06;nan;102091.63;4991970;28;20042;-49
2021/06/07 11:20:07;;;;;;;5.95;2.97;;;;;;;30.26;nan;102089.03;4987884;28;20041;-48
2021/06/07 11:23:10;;;;;;;4.85;3.00;;;;;;;30.19;nan;102089.63;4976916;28;20038;-48
2021/06/07 11:25:52;;;;;;;3.40;2.85;;;;;;;30.01;nan;102082.75;4988051;28;20038;-48
2021/06/07 11:28:44;;;;;;;3.38;2.45;;;;;;;30.33;nan;102087.28;4988499;28;20058;-48
2021/06/07 11:31:18;;;;;;;2.88;2.47;;;;;;;30.42;nan;102078.84;4989756;28;20022;-49
2021/06/07 11:34:04;;;;;;;3.75;2.80;;;;;;;30.60;nan;102079.34;4988588;28;20079;-48
2021/06/07 11:36:59;;;;;;;3.10;2.90;;;;;;;30.68;nan;102079.22;4986846;28;20030;-48
2021/06/07 11:39:27;;;;;;;5.88;3.30;;;;;;;30.71;nan;102080.50;4971546;28;20091;-48
2021/06/07 11:42:03;;;;;;;4.28;3.45;;;;;;;30.68;nan;102073.69;4992545;28;20087;-49
2021/06/07 11:44:46;;;;;;;4.35;3.00;;;;;;;30.67;nan;102074.84;4990576;28;20096;-48
2021/06/07 11:47:15;;;;;;;4.18;3.50;;;;;;;30.87;nan;102069.44;4989335;28;20030;-48